Newport Municipal Airport
KONP : now visible

Airfield :











YOU CAN JOIN US ON...

 
LOGIN :

Register | Disclaimer

   EN    FR    IT 

 









Legend :    VFR   Marginal VFR   IFR   Intensive IFR   Very Intensive IFR
Visi :
Ceiling :
>= 8 km
>= 3000ft
5 to 8 km
1000 to 3000 ft
1500m to 5 km
500 to 1000 ft
800 to 1500m
200 to 500 ft
< 800m
< 200 ft
Symbols :   Thunderstorms  Fog  Heavy snow  Heavy precipitations  Wind > 20 kt






- Airport Elevation : 160 ft


KONP - Newport Municipal

CURRENT METAR :
  • 281435Z AUTO 21021G26KT 5SM BR BKN019 BKN028 OVC041 10/09 A2996 RMK AO2

EXPIRED METARs :
  • 281415Z AUTO 21019G26KT 5SM BR BKN019 BKN030 OVC045 10/08 A2996 RMK AO2
  • 281355Z AUTO 19017G22KT 5SM -RA BKN017 OVC024 09/08 A2995 RMK AO2 P0001
  • 281335Z AUTO 18013G22KT 5SM BR SCT023 OVC032 08/08 A2996 RMK AO2
  • 281255Z AUTO 19017G26KT 5SM BR BKN046 OVC055 08/07 A2995 RMK AO2 P0003
  • 281235Z AUTO 20026G32KT 4SM -RA SCT014 SCT033 OVC046 09/08 A2995 RMK AO2 P0003
  • 281215Z AUTO 21019G27KT 5SM RA SCT012 BKN046 OVC050 08/08 A2995 RMK AO2 P0001
  • 281155Z AUTO 23019G35KT 2 1/2SM RA SCT012 BKN034 OVC050 08/07 A2995 RMK AO2 P0008

TAF KONP
Valid from the 28 at 14:00 until the 29 at 12:00 UTC


281332Z 2814/2912 20015G23KT 5SM -SHRA BR SCT013 BKN035 OVC050
FM281900 22020G28KT 5SM -SHRA SCT015 BKN025 OVC040
FM290300 20008KT P6SM BKN007 OVC025
FM291000 18012G20KT P6SM -RA SCT020 BKN028 OVC050



MET'MAP, your aeronautical weather chart ! - Copyright ORBIFLY December 2007 - Disclaimer

ORBIFLY MET'MAP TEAM :

Programming & Development : Alexandra Zaïnal
Concept & original design : Baudouin d'Aumeries
Assistance for programming : Marc-Olivier Méhu
Technical & hardware support : Manuel Goepfert

Contact : metmap@orbifly.com




SOURCES & CREDITS :

   NOAA       Earth
Advisory